Pagina principale
METAR-TAF:

METAR-TAF

Aeroporti :

Lleida-Alguaire

Lleida, Spagna

latitudine: 41-43-40N, longitudine: 000-32-09E, altezza: 350 m

Osservazione

Il bollettino è stato emesso 43 minuti fa, alle 05:00 UTC
Vento 6 kt da ovest/sud-ovest
Temperature 4°C
Umidità 100%
Pressione 1008 hPa
Visibilità: 6000 m
Nuvoloso ad un'altezza di 900 ft
Nuvoloso ad un'altezza di 1300 ft

METAR: LEDA 180500Z AUTO 25006KT 6000 BKN009 BKN013 04/04 Q1008

Ora: 06:43 (05:43 UTC)


TAF: mancante

Osservazioni e previsioni meteorologiche di più di 4000 aeroporti (messaggi METAR e TAF).

Le stazioni disponibili sono rappresentate dai dischi gialli e rossi sulla carta.

Puntare il mouse per vedere il nome della stazione.

Clicca sopra per visualizzare le osservazioni e previsioni meteorologiche.

Per cambiare la mappa : fare clic sui pulsanti verdi con una croce nera per ingrandire, il pulsante verde con un trattino per diminuire, o sulla freccia verde per le mappe adiacenti.


METAR-TAF: